Time;durP1;ratioP1;P1;durP2;ratioP2;P2;SDS_P1;SDS_P2;PMS_P1;PMS_P2;Temp;Humidity;BMP_temperature;BMP_pressure;BME280_temperature;BME280_humidity;BME280_pressure;Samples;Min_cycle;Max_cycle;Signal;HPM_P1;HPM_P2
2022/04/14 00:01:53;;;;;;;0.00;0.00;;;;;;;;;;4976001;28;20233;-66
2022/04/14 00:04:21;;;;;;;0.00;0.00;;;;;;;;;;4974679;28;20207;-67
2022/04/14 00:06:48;;;;;;;0.00;0.00;;;;;;;;;;4974574;28;20655;-66
2022/04/14 00:09:18;;;;;;;0.00;0.00;;;;;;;;;;4974909;28;20211;-67
2022/04/14 00:11:45;;;;;;;0.13;0.13;;;;;;;;;;4975179;28;20202;-67
2022/04/14 00:14:13;;;;;;;0.00;0.00;;;;;;;;;;4974825;28;20198;-67
2022/04/14 00:16:40;;;;;;;0.00;0.00;;;;;;;;;;4975882;28;20210;-66
2022/04/14 00:19:08;;;;;;;0.00;0.00;;;;;;;;;;4975565;28;20658;-66
2022/04/14 00:21:36;;;;;;;0.00;0.00;;;;;;;;;;4975408;28;20226;-66
2022/04/14 00:24:04;;;;;;;0.00;0.00;;;;;;;;;;4972134;28;20195;-66
2022/04/14 00:26:33;;;;;;;0.00;0.00;;;;;;;;;;4975816;28;20204;-66
2022/04/14 00:29:01;;;;;;;1.80;1.70;;;;;;;;;;4975633;28;20198;-66
2022/04/14 00:31:28;;;;;;;0.00;0.00;;;;;;;;;;4975364;28;20534;-66
2022/04/14 00:33:55;;;;;;;0.00;0.00;;;;;;;;;;4974605;28;20206;-66
2022/04/14 00:36:23;;;;;;;0.00;0.00;;;;;;;;;;4975897;28;20217;-66
2022/04/14 00:38:50;;;;;;;0.00;0.00;;;;;;;;;;4975791;28;20208;-66
2022/04/14 00:41:18;;;;;;;0.10;0.10;;;;;;;;;;4975278;28;20230;-66
2022/04/14 00:43:52;;;;;;;0.00;0.00;;;;;;;;;;4973782;28;20251;-66
2022/04/14 00:46:19;;;;;;;0.00;0.00;;;;;;;;;;4956051;28;20665;-67
2022/04/14 00:48:47;;;;;;;0.00;0.00;;;;;;;;;;4955948;28;20203;-66
2022/04/14 00:51:14;;;;;;;0.00;0.00;;;;;;;;;;4956221;28;20582;-66
2022/04/14 00:53:42;;;;;;;0.00;0.00;;;;;;;;;;4955668;28;20214;-67
2022/04/14 00:56:09;;;;;;;0.00;0.00;;;;;;;;;;4963776;28;20214;-66
2022/04/14 00:58:36;;;;;;;0.83;0.83;;;;;;;;;;4974861;28;20198;-67
2022/04/14 01:01:06;;;;;;;0.00;0.00;;;;;;;;;;4974656;28;20253;-67
2022/04/14 01:03:33;;;;;;;0.00;0.00;;;;;;;;;;4974589;28;20202;-66
2022/04/14 01:06:01;;;;;;;0.00;0.00;;;;;;;;;;4972872;28;20202;-66
2022/04/14 01:08:28;;;;;;;0.00;0.00;;;;;;;;;;4974794;28;20206;-66
2022/04/14 01:10:57;;;;;;;0.00;0.00;;;;;;;;;;4974823;28;20277;-66
2022/04/14 01:13:24;;;;;;;0.00;0.00;;;;;;;;;;4974615;28;20293;-67
2022/04/14 01:15:57;;;;;;;0.00;0.00;;;;;;;;;;4973554;28;20579;-67
2022/04/14 01:18:26;;;;;;;0.00;0.00;;;;;;;;;;4974503;28;20686;-66
2022/04/14 01:20:54;;;;;;;0.00;0.00;;;;;;;;;;4974367;28;20226;-68
2022/04/14 01:23:26;;;;;;;0.00;0.00;;;;;;;;;;4974508;28;20209;-67
2022/04/14 01:25:55;;;;;;;0.00;0.00;;;;;;;;;;4971594;28;20690;-68
2022/04/14 01:28:23;;;;;;;0.00;0.00;;;;;;;;;;4974266;28;20671;-67
2022/04/14 01:30:50;;;;;;;0.00;0.00;;;;;;;;;;4974684;28;20199;-68
2022/04/14 01:33:17;;;;;;;0.00;0.00;;;;;;;;;;4974192;28;20205;-67
2022/04/14 01:35:45;;;;;;;0.00;0.00;;;;;;;;;;4973417;28;20679;-67
2022/04/14 01:38:13;;;;;;;0.00;0.00;;;;;;;;;;4974349;28;20202;-68
2022/04/14 01:40:41;;;;;;;0.00;0.00;;;;;;;;;;4973357;28;20237;-67
2022/04/14 01:43:10;;;;;;;0.00;0.00;;;;;;;;;;4973895;28;20211;-67
2022/04/14 01:45:37;;;;;;;0.00;0.00;;;;;;;;;;4973161;28;20206;-67
2022/04/14 01:48:05;;;;;;;0.00;0.00;;;;;;;;;;4974069;28;20205;-67
2022/04/14 01:50:32;;;;;;;0.00;0.00;;;;;;;;;;4974005;28;20198;-68
2022/04/14 01:53:00;;;;;;;0.00;0.00;;;;;;;;;;4973910;28;20205;-68
2022/04/14 01:55:27;;;;;;;0.00;0.00;;;;;;;;;;4972759;28;20642;-68
2022/04/14 01:57:54;;;;;;;0.00;0.00;;;;;;;;;;4973741;28;20209;-68
2022/04/14 02:00:23;;;;;;;0.00;0.00;;;;;;;;;;4973745;28;20242;-68
2022/04/14 02:02:50;;;;;;;0.00;0.00;;;;;;;;;;4973887;28;20202;-68
2022/04/14 02:05:17;;;;;;;0.00;0.00;;;;;;;;;;4973055;28;20202;-68
2022/04/14 02:07:46;;;;;;;0.07;0.07;;;;;;;;;;4973525;28;20219;-68
2022/04/14 02:10:14;;;;;;;0.43;0.43;;;;;;;;;;4973542;28;20194;-67
2022/04/14 02:12:45;;;;;;;0.00;0.00;;;;;;;;;;4973564;28;20202;-67
2022/04/14 02:15:14;;;;;;;0.00;0.00;;;;;;;;;;4972539;28;20293;-67
2022/04/14 02:17:43;;;;;;;0.00;0.00;;;;;;;;;;4973647;28;20198;-67
2022/04/14 02:20:11;;;;;;;0.00;0.00;;;;;;;;;;4973420;28;20198;-68
2022/04/14 02:22:41;;;;;;;0.00;0.00;;;;;;;;;;4973340;28;20685;-68
2022/04/14 02:25:09;;;;;;;0.37;0.37;;;;;;;;;;4972426;28;20210;-68
2022/04/14 02:27:36;;;;;;;0.00;0.00;;;;;;;;;;4973397;28;20289;-67
2022/04/14 02:30:04;;;;;;;0.00;0.00;;;;;;;;;;4973673;28;20205;-68
2022/04/14 02:32:32;;;;;;;0.00;0.00;;;;;;;;;;4973399;28;20199;-67
2022/04/14 02:35:01;;;;;;;0.00;0.00;;;;;;;;;;4971646;28;20212;-67
2022/04/14 02:37:29;;;;;;;0.00;0.00;;;;;;;;;;4973479;28;20478;-67
2022/04/14 02:39:56;;;;;;;0.17;0.13;;;;;;;;;;4973432;28;20672;-67
2022/04/14 02:42:23;;;;;;;0.00;0.00;;;;;;;;;;4973221;28;20727;-67
2022/04/14 02:44:51;;;;;;;0.10;0.10;;;;;;;;;;4972483;28;20202;-67
2022/04/14 02:47:18;;;;;;;0.00;0.00;;;;;;;;;;4976140;28;20194;-67
2022/04/14 02:49:45;;;;;;;0.00;0.00;;;;;;;;;;4977184;28;20209;-66
2022/04/14 02:52:14;;;;;;;0.03;0.03;;;;;;;;;;4977508;28;20198;-67
2022/04/14 02:54:41;;;;;;;0.00;0.00;;;;;;;;;;4975928;28;20607;-67
2022/04/14 02:57:10;;;;;;;0.10;0.10;;;;;;;;;;4977009;28;20202;-67
2022/04/14 02:59:38;;;;;;;0.00;0.00;;;;;;;;;;4976876;28;20202;-67
2022/04/14 03:02:06;;;;;;;0.00;0.00;;;;;;;;;;4977029;28;20244;-67
2022/04/14 03:04:34;;;;;;;0.00;0.00;;;;;;;;;;4976499;28;20210;-67
2022/04/14 03:07:01;;;;;;;0.00;0.00;;;;;;;;;;4977012;28;20203;-67
2022/04/14 03:09:30;;;;;;;0.10;0.10;;;;;;;;;;4976827;28;20202;-67
2022/04/14 03:11:57;;;;;;;0.00;0.00;;;;;;;;;;4976997;28;20575;-67
2022/04/14 03:14:24;;;;;;;0.00;0.00;;;;;;;;;;4975686;28;20205;-67
2022/04/14 03:16:52;;;;;;;0.50;0.50;;;;;;;;;;4976642;28;20674;-67
2022/04/14 03:19:19;;;;;;;0.00;0.00;;;;;;;;;;4976652;28;20616;-67
2022/04/14 03:21:47;;;;;;;0.00;0.00;;;;;;;;;;4976762;28;20245;-67
2022/04/14 03:24:14;;;;;;;0.07;0.07;;;;;;;;;;4975860;28;20199;-67
2022/04/14 03:26:43;;;;;;;0.03;0.03;;;;;;;;;;4976241;28;20604;-67
2022/04/14 03:29:10;;;;;;;0.20;0.20;;;;;;;;;;4976256;28;20209;-67
2022/04/14 03:31:38;;;;;;;0.00;0.00;;;;;;;;;;4976446;28;20204;-67
2022/04/14 03:34:05;;;;;;;0.00;0.00;;;;;;;;;;4976752;28;20194;-67
2022/04/14 03:36:32;;;;;;;0.10;0.10;;;;;;;;;;4975226;28;20210;-67
2022/04/14 03:39:00;;;;;;;0.00;0.00;;;;;;;;;;4976457;28;20208;-67
2022/04/14 03:41:27;;;;;;;0.00;0.00;;;;;;;;;;4976023;28;20227;-67
2022/04/14 03:43:57;;;;;;;0.00;0.00;;;;;;;;;;4976268;28;20198;-66
2022/04/14 03:46:24;;;;;;;0.00;0.00;;;;;;;;;;4974849;28;20671;-66
2022/04/14 03:48:52;;;;;;;0.00;0.00;;;;;;;;;;4976291;28;20544;-67
2022/04/14 03:51:19;;;;;;;0.00;0.00;;;;;;;;;;4976148;28;20203;-69
2022/04/14 03:53:46;;;;;;;0.00;0.00;;;;;;;;;;4976648;28;20724;-68
2022/04/14 03:56:14;;;;;;;0.20;0.20;;;;;;;;;;4973976;28;20203;-68
2022/04/14 03:58:41;;;;;;;0.00;0.00;;;;;;;;;;4976057;28;20230;-68
2022/04/14 04:01:10;;;;;;;0.00;0.00;;;;;;;;;;4975425;28;20729;-68
2022/04/14 04:03:37;;;;;;;0.00;0.00;;;;;;;;;;4976202;28;20198;-68
2022/04/14 04:06:05;;;;;;;1.80;1.70;;;;;;;;;;4974569;28;20663;-68
2022/04/14 04:08:32;;;;;;;0.00;0.00;;;;;;;;;;4975814;28;20577;-67
2022/04/14 04:11:00;;;;;;;0.00;0.00;;;;;;;;;;4975749;28;20212;-68
2022/04/14 04:13:27;;;;;;;0.00;0.00;;;;;;;;;;4975596;28;20571;-68
2022/04/14 04:15:55;;;;;;;1.23;0.43;;;;;;;;;;4975062;28;20234;-68
2022/04/14 04:18:23;;;;;;;0.00;0.00;;;;;;;;;;4974825;28;20202;-68
2022/04/14 04:20:51;;;;;;;0.00;0.00;;;;;;;;;;4975126;28;20584;-66
2022/04/14 04:23:18;;;;;;;0.10;0.10;;;;;;;;;;4975414;28;20194;-68
2022/04/14 04:25:45;;;;;;;0.00;0.00;;;;;;;;;;4974091;28;20680;-67
2022/04/14 04:28:13;;;;;;;0.00;0.00;;;;;;;;;;4956244;28;20203;-66
2022/04/14 04:30:40;;;;;;;0.00;0.00;;;;;;;;;;4956237;28;20211;-68
2022/04/14 04:33:08;;;;;;;0.00;0.00;;;;;;;;;;4956473;28;20258;-69
2022/04/14 04:35:36;;;;;;;0.20;0.20;;;;;;;;;;4956274;28;20214;-67
2022/04/14 04:38:04;;;;;;;0.00;0.00;;;;;;;;;;4974725;28;20210;-67
2022/04/14 04:40:31;;;;;;;0.10;0.10;;;;;;;;;;4975725;28;20194;-67
2022/04/14 04:42:59;;;;;;;0.00;0.00;;;;;;;;;;4975311;28;20234;-66
2022/04/14 04:45:26;;;;;;;0.00;0.00;;;;;;;;;;4975161;28;20206;-68
2022/04/14 04:47:53;;;;;;;0.00;0.00;;;;;;;;;;4972244;28;20203;-67
2022/04/14 04:50:21;;;;;;;0.00;0.00;;;;;;;;;;4974958;28;20206;-67
2022/04/14 04:52:49;;;;;;;0.30;0.30;;;;;;;;;;4975248;28;20202;-66
2022/04/14 04:55:17;;;;;;;0.00;0.00;;;;;;;;;;4974923;28;20575;-66
2022/04/14 04:57:44;;;;;;;0.00;0.00;;;;;;;;;;4973988;28;20205;-66
2022/04/14 05:00:12;;;;;;;0.00;0.00;;;;;;;;;;4973889;28;20244;-66
2022/04/14 05:02:39;;;;;;;0.00;0.00;;;;;;;;;;4974803;28;20229;-67
2022/04/14 05:05:07;;;;;;;0.00;0.00;;;;;;;;;;4974731;28;20617;-67
2022/04/14 05:07:34;;;;;;;0.00;0.00;;;;;;;;;;4974161;28;20209;-66
2022/04/14 05:10:03;;;;;;;0.00;0.00;;;;;;;;;;4974294;28;20202;-67
2022/04/14 05:12:30;;;;;;;0.00;0.00;;;;;;;;;;4974920;28;20198;-67
2022/04/14 05:14:58;;;;;;;0.00;0.00;;;;;;;;;;4974754;28;20209;-66
2022/04/14 05:17:25;;;;;;;0.00;0.00;;;;;;;;;;4972081;28;20202;-66
2022/04/14 05:19:52;;;;;;;0.00;0.00;;;;;;;;;;4974596;28;20209;-66
2022/04/14 05:22:20;;;;;;;0.00;0.00;;;;;;;;;;4972429;28;20350;-66
2022/04/14 05:24:47;;;;;;;0.00;0.00;;;;;;;;;;4974527;28;20668;-67
2022/04/14 05:27:16;;;;;;;0.00;0.00;;;;;;;;;;4974352;28;20202;-66
2022/04/14 05:29:43;;;;;;;0.00;0.00;;;;;;;;;;4974517;28;20194;-67
2022/04/14 05:32:11;;;;;;;0.00;0.00;;;;;;;;;;4973121;28;20297;-67
2022/04/14 05:34:38;;;;;;;0.00;0.00;;;;;;;;;;4974575;28;20205;-67
2022/04/14 05:37:06;;;;;;;0.00;0.00;;;;;;;;;;4974334;28;20556;-67
2022/04/14 05:39:33;;;;;;;0.00;0.00;;;;;;;;;;4974102;28;20198;-67
2022/04/14 05:42:01;;;;;;;0.00;0.00;;;;;;;;;;4973331;28;20234;-67
2022/04/14 05:44:29;;;;;;;0.40;0.40;;;;;;;;;;4974114;28;20209;-67
2022/04/14 05:46:57;;;;;;;1.60;1.50;;;;;;;;;;4974014;28;20205;-67
2022/04/14 05:49:24;;;;;;;0.40;0.40;;;;;;;;;;4973882;28;20198;-67
2022/04/14 05:51:51;;;;;;;0.10;0.10;;;;;;;;;;4973052;28;20232;-67
2022/04/14 05:54:19;;;;;;;0.20;0.20;;;;;;;;;;4974080;28;20198;-67
2022/04/14 05:56:46;;;;;;;0.47;0.47;;;;;;;;;;4973845;28;20564;-67
2022/04/14 05:59:16;;;;;;;0.00;0.00;;;;;;;;;;4973554;28;20205;-67
2022/04/14 06:01:45;;;;;;;0.73;0.73;;;;;;;;;;4972541;28;20298;-67
2022/04/14 06:04:13;;;;;;;0.30;0.30;;;;;;;;;;4974119;28;20572;-67
2022/04/14 06:06:40;;;;;;;0.87;0.87;;;;;;;;;;4973774;28;20206;-67
2022/04/14 06:09:08;;;;;;;0.07;0.07;;;;;;;;;;4973918;28;20208;-67
2022/04/14 06:11:36;;;;;;;0.10;0.10;;;;;;;;;;4971997;28;20204;-67
2022/04/14 06:14:03;;;;;;;0.30;0.30;;;;;;;;;;4973518;28;20289;-67
2022/04/14 06:16:31;;;;;;;0.00;0.00;;;;;;;;;;4973810;28;20695;-67
2022/04/14 06:19:00;;;;;;;0.00;0.00;;;;;;;;;;4973854;28;20198;-67
2022/04/14 06:21:27;;;;;;;1.90;1.17;;;;;;;;;;4971866;28;20202;-67
2022/04/14 06:23:56;;;;;;;1.90;1.37;;;;;;;;;;4973504;28;20687;-67
2022/04/14 06:26:23;;;;;;;2.80;1.60;;;;;;;;;;4973487;28;20207;-67
2022/04/14 06:28:50;;;;;;;1.17;1.00;;;;;;;;;;4972671;28;20202;-67
2022/04/14 06:31:18;;;;;;;0.22;0.10;;;;;;;;;;4973445;28;20220;-67
2022/04/14 06:33:45;;;;;;;0.00;0.00;;;;;;;;;;4973547;28;20578;-67
2022/04/14 06:36:14;;;;;;;0.00;0.00;;;;;;;;;;4973413;28;20236;-67
2022/04/14 06:38:41;;;;;;;1.40;1.30;;;;;;;;;;4971096;28;20202;-67
2022/04/14 06:41:09;;;;;;;0.40;0.32;;;;;;;;;;4973439;28;20201;-67
2022/04/14 06:43:36;;;;;;;0.50;0.50;;;;;;;;;;4973351;28;20233;-67
2022/04/14 06:46:04;;;;;;;0.98;0.85;;;;;;;;;;4973543;28;20221;-67
2022/04/14 06:48:32;;;;;;;1.75;1.15;;;;;;;;;;4972480;28;20211;-67
2022/04/14 06:50:59;;;;;;;0.38;0.38;;;;;;;;;;4973540;28;20202;-67
2022/04/14 06:53:28;;;;;;;0.28;0.28;;;;;;;;;;4972807;28;20199;-67
2022/04/14 06:55:55;;;;;;;1.95;1.00;;;;;;;;;;4973411;28;20199;-67
2022/04/14 06:58:23;;;;;;;0.20;0.20;;;;;;;;;;4971629;28;20221;-67
2022/04/14 07:00:50;;;;;;;0.60;0.32;;;;;;;;;;4973100;28;20236;-67
2022/04/14 07:03:19;;;;;;;0.30;0.28;;;;;;;;;;4973131;28;20230;-67
2022/04/14 07:05:47;;;;;;;1.45;0.80;;;;;;;;;;4972961;28;20202;-67
2022/04/14 07:08:15;;;;;;;0.52;0.52;;;;;;;;;;4972424;28;20207;-67
2022/04/14 07:10:44;;;;;;;0.00;0.00;;;;;;;;;;4973338;28;20199;-67
2022/04/14 07:13:12;;;;;;;0.10;0.10;;;;;;;;;;4973070;28;20207;-67
2022/04/14 07:15:39;;;;;;;0.20;0.20;;;;;;;;;;4973137;28;20202;-67
2022/04/14 07:18:07;;;;;;;0.13;0.13;;;;;;;;;;4972155;28;20203;-67
2022/04/14 07:20:34;;;;;;;0.00;0.00;;;;;;;;;;4972984;28;20202;-67
2022/04/14 07:23:02;;;;;;;0.00;0.00;;;;;;;;;;4972795;28;20265;-67
2022/04/14 07:25:32;;;;;;;0.00;0.00;;;;;;;;;;4972963;28;20269;-67
2022/04/14 07:28:01;;;;;;;0.20;0.20;;;;;;;;;;4971541;28;20203;-67
2022/04/14 07:30:28;;;;;;;0.57;0.57;;;;;;;;;;4973057;28;20309;-68
2022/04/14 07:32:56;;;;;;;1.45;1.30;;;;;;;;;;4975110;28;20206;-67
2022/04/14 07:35:25;;;;;;;0.60;0.60;;;;;;;;;;4976427;28;20663;-67
2022/04/14 07:37:53;;;;;;;0.88;0.88;;;;;;;;;;4975351;28;20202;-67
2022/04/14 07:40:20;;;;;;;0.05;0.05;;;;;;;;;;4976356;28;20679;-67
2022/04/14 07:42:49;;;;;;;1.35;0.85;;;;;;;;;;4975624;28;20603;-67
2022/04/14 07:45:18;;;;;;;0.50;0.50;;;;;;;;;;4976020;28;20287;-67
2022/04/14 07:47:46;;;;;;;0.00;0.00;;;;;;;;;;4975057;28;20326;-67
2022/04/14 07:50:14;;;;;;;1.25;1.25;;;;;;;;;;4976306;28;20198;-67
2022/04/14 07:52:45;;;;;;;0.10;0.10;;;;;;;;;;4976301;28;20210;-67
2022/04/14 07:55:13;;;;;;;0.20;0.20;;;;;;;;;;4975689;28;20257;-67
2022/04/14 07:57:40;;;;;;;0.15;0.15;;;;;;;;;;4976038;28;20203;-67
2022/04/14 08:00:09;;;;;;;0.80;0.60;;;;;;;;;;4975425;28;20233;-67
2022/04/14 08:02:46;;;;;;;0.45;0.45;;;;;;;;;;4976205;28;20230;-68
2022/04/14 08:05:14;;;;;;;6.53;1.88;;;;;;;;;;4975679;28;20201;-67
2022/04/14 08:07:41;;;;;;;0.00;0.00;;;;;;;;;;4975667;28;20206;-68
2022/04/14 08:10:09;;;;;;;0.00;0.00;;;;;;;;;;4975308;28;20209;-68
2022/04/14 08:12:36;;;;;;;0.00;0.00;;;;;;;;;;4975877;28;20249;-67
2022/04/14 08:15:04;;;;;;;0.00;0.00;;;;;;;;;;4975929;28;20209;-68
2022/04/14 08:17:33;;;;;;;0.00;0.00;;;;;;;;;;4974350;28;20206;-67
2022/04/14 08:20:02;;;;;;;0.50;0.50;;;;;;;;;;4975614;28;20198;-67
2022/04/14 08:22:30;;;;;;;0.93;0.85;;;;;;;;;;4975649;28;20233;-67
2022/04/14 08:24:57;;;;;;;0.22;0.22;;;;;;;;;;4975685;28;20206;-67
2022/04/14 08:27:24;;;;;;;0.40;0.40;;;;;;;;;;4974355;28;20652;-67
2022/04/14 08:29:52;;;;;;;0.20;0.15;;;;;;;;;;4975784;28;20206;-68
2022/04/14 08:32:19;;;;;;;2.33;1.48;;;;;;;;;;4975702;28;20537;-67
2022/04/14 08:34:48;;;;;;;0.43;0.43;;;;;;;;;;4975475;28;20208;-67
2022/04/14 08:37:17;;;;;;;0.28;0.28;;;;;;;;;;4973831;28;20198;-66
2022/04/14 08:39:44;;;;;;;0.00;0.00;;;;;;;;;;4974539;28;20201;-67
2022/04/14 08:42:15;;;;;;;0.10;0.10;;;;;;;;;;4975094;28;20198;-67
2022/04/14 08:44:46;;;;;;;0.38;0.17;;;;;;;;;;4974540;28;20210;-67
2022/04/14 08:47:15;;;;;;;0.10;0.10;;;;;;;;;;4973882;28;20198;-67
2022/04/14 08:49:43;;;;;;;1.00;1.00;;;;;;;;;;4975122;28;20274;-67
2022/04/14 08:52:14;;;;;;;0.90;0.90;;;;;;;;;;4974963;28;20206;-67
2022/04/14 08:54:45;;;;;;;0.00;0.00;;;;;;;;;;4974963;28;20202;-68
2022/04/14 08:57:15;;;;;;;0.00;0.00;;;;;;;;;;4973897;28;20256;-68
2022/04/14 08:59:44;;;;;;;0.38;0.38;;;;;;;;;;4974990;28;20233;-69
2022/04/14 09:02:15;;;;;;;0.00;0.00;;;;;;;;;;4974727;28;20210;-69
2022/04/14 09:04:43;;;;;;;0.63;0.63;;;;;;;;;;4974830;28;20250;-69
2022/04/14 09:07:11;;;;;;;0.20;0.20;;;;;;;;;;4970470;28;20297;-68
2022/04/14 09:09:39;;;;;;;0.57;0.57;;;;;;;;;;4968969;28;20290;-67
2022/04/14 09:12:09;;;;;;;0.00;0.00;;;;;;;;;;4971475;28;20276;-68
2022/04/14 09:14:37;;;;;;;1.50;0.30;;;;;;;;;;4974675;28;20680;-69
2022/04/14 09:17:04;;;;;;;0.00;0.00;;;;;;;;;;4973846;28;20342;-68
2022/04/14 09:19:32;;;;;;;0.25;0.22;;;;;;;;;;4974262;28;20202;-68
2022/04/14 09:22:00;;;;;;;0.57;0.43;;;;;;;;;;4974687;28;20199;-68
2022/04/14 09:24:40;;;;;;;0.00;0.00;;;;;;;;;;4974376;28;20237;-68
2022/04/14 09:27:09;;;;;;;0.70;0.70;;;;;;;;;;4973487;28;20214;-69
2022/04/14 09:29:36;;;;;;;0.52;0.20;;;;;;;;;;4974312;28;20301;-69
2022/04/14 09:32:04;;;;;;;0.65;0.65;;;;;;;;;;4974682;28;20300;-69
2022/04/14 09:34:48;;;;;;;0.90;0.88;;;;;;;;;;4974532;28;20289;-68
2022/04/14 09:37:16;;;;;;;0.20;0.20;;;;;;;;;;4973188;28;20203;-67
2022/04/14 09:39:55;;;;;;;0.20;0.20;;;;;;;;;;4974244;28;20304;-68
2022/04/14 09:42:24;;;;;;;0.55;0.55;;;;;;;;;;4974261;28;20683;-68
2022/04/14 09:44:52;;;;;;;2.40;2.05;;;;;;;;;;4974389;28;20233;-68
2022/04/14 09:47:34;;;;;;;0.25;0.25;;;;;;;;;;4972938;28;20290;-67
2022/04/14 09:50:01;;;;;;;1.17;1.15;;;;;;;;;;4973688;28;20288;-67
2022/04/14 09:52:29;;;;;;;0.50;0.40;;;;;;;;;;4972057;28;20221;-67
2022/04/14 09:55:08;;;;;;;1.85;0.50;;;;;;;;;;4971934;28;20202;-68
2022/04/14 09:57:37;;;;;;;1.40;0.63;;;;;;;;;;4973998;28;20206;-67
2022/04/14 10:00:05;;;;;;;1.45;1.35;;;;;;;;;;4974089;28;20234;-68
2022/04/14 10:02:35;;;;;;;0.88;0.88;;;;;;;;;;4973635;28;20202;-67
2022/04/14 10:05:05;;;;;;;0.77;0.77;;;;;;;;;;4971559;28;20268;-67
2022/04/14 10:07:33;;;;;;;0.63;0.63;;;;;;;;;;4973121;28;20214;-67
2022/04/14 10:10:00;;;;;;;0.00;0.00;;;;;;;;;;4973607;28;20289;-68
2022/04/14 10:12:29;;;;;;;0.57;0.57;;;;;;;;;;4973708;28;20204;-68
2022/04/14 10:15:05;;;;;;;0.17;0.17;;;;;;;;;;4972735;28;20208;-68
2022/04/14 10:17:35;;;;;;;3.20;1.75;;;;;;;;;;4973567;28;20206;-68
2022/04/14 10:20:04;;;;;;;0.00;0.00;;;;;;;;;;4973560;28;20208;-67
2022/04/14 10:22:31;;;;;;;0.60;0.60;;;;;;;;;;4973707;28;20207;-68
2022/04/14 10:24:59;;;;;;;1.33;0.63;;;;;;;;;;4968489;28;20293;-68
2022/04/14 10:27:27;;;;;;;1.65;0.63;;;;;;;;;;4972534;28;20671;-68
2022/04/14 10:29:54;;;;;;;0.73;0.73;;;;;;;;;;4973366;28;20202;-68
2022/04/14 10:32:24;;;;;;;1.58;0.80;;;;;;;;;;4973574;28;20195;-68
2022/04/14 10:34:51;;;;;;;0.25;0.25;;;;;;;;;;4972180;28;20565;-68
2022/04/14 10:37:22;;;;;;;0.15;0.15;;;;;;;;;;4973221;28;20686;-68
2022/04/14 10:39:50;;;;;;;2.15;0.73;;;;;;;;;;4973336;28;20668;-68
2022/04/14 10:42:20;;;;;;;0.20;0.20;;;;;;;;;;4973175;28;20213;-68
2022/04/14 10:44:48;;;;;;;0.10;0.10;;;;;;;;;;4972442;28;20234;-68
2022/04/14 10:47:31;;;;;;;0.10;0.10;;;;;;;;;;4973234;28;20276;-68
2022/04/14 10:50:00;;;;;;;0.20;0.13;;;;;;;;;;4973223;28;20568;-68
2022/04/14 10:52:28;;;;;;;0.47;0.47;;;;;;;;;;4973317;28;20293;-68
2022/04/14 10:54:57;;;;;;;0.60;0.60;;;;;;;;;;4972167;28;20202;-68
2022/04/14 10:57:37;;;;;;;0.10;0.10;;;;;;;;;;4972710;28;20206;-68
2022/04/14 11:00:34;;;;;;;1.02;1.02;;;;;;;;;;4973022;28;20240;-68
2022/04/14 11:03:11;;;;;;;0.75;0.60;;;;;;;;;;4973144;28;20206;-67
2022/04/14 11:05:40;;;;;;;0.20;0.20;;;;;;;;;;4972195;28;20214;-68
2022/04/14 11:08:27;;;;;;;1.00;1.00;;;;;;;;;;4976159;28;20206;-68
2022/04/14 11:10:56;;;;;;;1.27;0.90;;;;;;;;;;4976833;28;20202;-67
2022/04/14 11:13:23;;;;;;;0.20;0.20;;;;;;;;;;4976815;28;20256;-68
2022/04/14 11:15:52;;;;;;;0.47;0.43;;;;;;;;;;4975737;28;20208;-68
2022/04/14 11:18:19;;;;;;;0.00;0.00;;;;;;;;;;4976762;28;20208;-69
2022/04/14 11:20:55;;;;;;;0.77;0.77;;;;;;;;;;4976740;28;20209;-68
2022/04/14 11:23:26;;;;;;;0.20;0.20;;;;;;;;;;4976463;28;20230;-68
2022/04/14 11:25:54;;;;;;;0.00;0.00;;;;;;;;;;4975887;28;20419;-68
2022/04/14 11:28:24;;;;;;;0.10;0.00;;;;;;;;;;4976594;28;20606;-68
2022/04/14 11:30:54;;;;;;;0.10;0.10;;;;;;;;;;4976809;28;20202;-68
2022/04/14 11:33:27;;;;;;;0.65;0.65;;;;;;;;;;4974989;28;20203;-68
2022/04/14 11:36:07;;;;;;;0.30;0.28;;;;;;;;;;4976415;28;20194;-68
2022/04/14 11:38:53;;;;;;;0.00;0.00;;;;;;;;;;4976289;28;20198;-68
2022/04/14 11:41:41;;;;;;;0.80;0.80;;;;;;;;;;4976054;28;20731;-68
2022/04/14 11:44:10;;;;;;;1.05;0.70;;;;;;;;;;4974189;28;20762;-68
2022/04/14 11:46:38;;;;;;;2.78;0.63;;;;;;;;;;4976420;28;20540;-68
2022/04/14 11:49:06;;;;;;;1.08;0.45;;;;;;;;;;4976242;28;20205;-68
2022/04/14 11:51:41;;;;;;;0.20;0.20;;;;;;;;;;4976273;28;20205;-68
2022/04/14 11:54:08;;;;;;;0.20;0.20;;;;;;;;;;4975121;28;20206;-68
2022/04/14 11:56:36;;;;;;;1.65;1.55;;;;;;;;;;4976262;28;20202;-68
2022/04/14 11:59:08;;;;;;;0.30;0.30;;;;;;;;;;4976119;28;20206;-68
2022/04/14 12:01:35;;;;;;;0.45;0.30;;;;;;;;;;4974034;28;20237;-68
2022/04/14 12:04:03;;;;;;;0.40;0.40;;;;;;;;;;4973674;28;20269;-68
2022/04/14 12:06:30;;;;;;;0.13;0.13;;;;;;;;;;4974872;28;20309;-68
2022/04/14 12:08:59;;;;;;;5.07;4.78;;;;;;;;;;4976075;28;20206;-68
2022/04/14 12:11:30;;;;;;;0.75;0.65;;;;;;;;;;4975705;28;20209;-68
2022/04/14 12:13:58;;;;;;;0.10;0.10;;;;;;;;;;4975718;28;20198;-68
2022/04/14 12:16:33;;;;;;;0.30;0.20;;;;;;;;;;4974637;28;20206;-69
2022/04/14 12:19:02;;;;;;;0.22;0.22;;;;;;;;;;4974243;28;20206;-68
2022/04/14 12:21:30;;;;;;;0.50;0.50;;;;;;;;;;4975525;28;20210;-68
2022/04/14 12:24:00;;;;;;;0.20;0.20;;;;;;;;;;4975592;28;20630;-68
2022/04/14 12:26:29;;;;;;;0.32;0.32;;;;;;;;;;4973604;28;20202;-67
2022/04/14 12:28:56;;;;;;;1.33;0.50;;;;;;;;;;4975281;28;20202;-68
2022/04/14 12:31:28;;;;;;;2.55;0.45;;;;;;;;;;4975264;28;20568;-67
2022/04/14 12:33:56;;;;;;;0.25;0.25;;;;;;;;;;4975664;28;20245;-68
2022/04/14 12:36:33;;;;;;;0.75;0.43;;;;;;;;;;4971399;28;20202;-67
2022/04/14 12:39:06;;;;;;;0.47;0.47;;;;;;;;;;4956052;28;20202;-67
2022/04/14 12:41:36;;;;;;;0.77;0.73;;;;;;;;;;4968527;28;20213;-69
2022/04/14 12:44:04;;;;;;;0.00;0.00;;;;;;;;;;4975234;28;20810;-68
2022/04/14 12:46:36;;;;;;;0.13;0.03;;;;;;;;;;4974604;28;20207;-67
2022/04/14 12:49:06;;;;;;;0.30;0.30;;;;;;;;;;4975327;28;20582;-69
2022/04/14 12:51:35;;;;;;;0.20;0.20;;;;;;;;;;4975047;28;20209;-68
2022/04/14 12:54:04;;;;;;;0.00;0.00;;;;;;;;;;4975289;28;20198;-68
2022/04/14 12:56:32;;;;;;;0.00;0.00;;;;;;;;;;4974613;28;20209;-68
2022/04/14 12:59:23;;;;;;;0.00;0.00;;;;;;;;;;4975285;28;20195;-69
2022/04/14 13:01:55;;;;;;;0.00;0.00;;;;;;;;;;4960580;28;20199;-68
2022/04/14 13:04:31;;;;;;;0.00;0.00;;;;;;;;;;4974956;28;20240;-68
2022/04/14 13:07:03;;;;;;;0.30;0.30;;;;;;;;;;4974722;28;20259;-67
2022/04/14 13:09:33;;;;;;;0.00;0.00;;;;;;;;;;4974804;28;20298;-68
2022/04/14 13:12:01;;;;;;;0.05;0.05;;;;;;;;;;4974838;28;20293;-68
2022/04/14 13:14:29;;;;;;;0.10;0.10;;;;;;;;;;4974785;28;20203;-68
2022/04/14 13:16:57;;;;;;;0.00;0.00;;;;;;;;;;4974054;28;20293;-68
2022/04/14 13:19:25;;;;;;;0.00;0.00;;;;;;;;;;4974639;28;20208;-68
2022/04/14 13:21:53;;;;;;;0.00;0.00;;;;;;;;;;4974728;28;20607;-68
2022/04/14 13:24:24;;;;;;;0.00;0.00;;;;;;;;;;4974585;28;20230;-68
2022/04/14 13:26:54;;;;;;;0.10;0.10;;;;;;;;;;4973003;28;20218;-67
2022/04/14 13:29:21;;;;;;;0.20;0.00;;;;;;;;;;4973871;28;20213;-68
2022/04/14 13:31:51;;;;;;;0.00;0.00;;;;;;;;;;4974487;28;20237;-68
2022/04/14 13:34:19;;;;;;;0.00;0.00;;;;;;;;;;4974577;28;20217;-67
2022/04/14 13:36:47;;;;;;;2.40;0.35;;;;;;;;;;4973426;28;20207;-69
2022/04/14 13:39:14;;;;;;;1.00;0.38;;;;;;;;;;4973970;28;20207;-68
2022/04/14 13:41:42;;;;;;;0.63;0.63;;;;;;;;;;4974091;28;20293;-68
2022/04/14 13:44:12;;;;;;;0.15;0.15;;;;;;;;;;4974082;28;20232;-68
2022/04/14 13:46:40;;;;;;;0.00;0.00;;;;;;;;;;4973582;28;20210;-69
2022/04/14 13:49:07;;;;;;;0.00;0.00;;;;;;;;;;4974239;28;20289;-70
2022/04/14 13:51:35;;;;;;;0.30;0.13;;;;;;;;;;4974046;28;20209;-68
2022/04/14 13:54:04;;;;;;;0.00;0.00;;;;;;;;;;4973910;28;20202;-67
2022/04/14 13:56:31;;;;;;;0.00;0.00;;;;;;;;;;4973376;28;20214;-68
2022/04/14 13:58:59;;;;;;;0.30;0.30;;;;;;;;;;4974211;28;20226;-68
2022/04/14 14:01:27;;;;;;;0.00;0.00;;;;;;;;;;4973444;28;20241;-68
2022/04/14 14:03:55;;;;;;;0.00;0.00;;;;;;;;;;4973817;28;20288;-69
2022/04/14 14:06:22;;;;;;;1.25;1.15;;;;;;;;;;4973200;28;20210;-68
2022/04/14 14:08:50;;;;;;;0.77;0.35;;;;;;;;;;4973619;28;20293;-68
2022/04/14 14:11:18;;;;;;;0.00;0.00;;;;;;;;;;4973478;28;20668;-68
2022/04/14 14:13:46;;;;;;;0.60;0.60;;;;;;;;;;4973750;28;20667;-68
2022/04/14 14:16:14;;;;;;;0.00;0.00;;;;;;;;;;4971743;28;20253;-69
2022/04/14 14:18:45;;;;;;;0.55;0.40;;;;;;;;;;4973659;28;20206;-67
2022/04/14 14:21:12;;;;;;;0.00;0.00;;;;;;;;;;4973313;28;20668;-68
2022/04/14 14:23:40;;;;;;;0.08;0.08;;;;;;;;;;4973740;28;20209;-68
2022/04/14 14:26:07;;;;;;;0.00;0.00;;;;;;;;;;4973672;28;20226;-68
2022/04/14 14:28:35;;;;;;;0.00;0.00;;;;;;;;;;4972697;28;20213;-68
2022/04/14 14:31:02;;;;;;;0.00;0.00;;;;;;;;;;4973420;28;20281;-68
2022/04/14 14:33:30;;;;;;;0.28;0.10;;;;;;;;;;4973221;28;20198;-68
2022/04/14 14:35:59;;;;;;;0.45;0.20;;;;;;;;;;4973288;28;20289;-68
2022/04/14 14:38:27;;;;;;;0.15;0.15;;;;;;;;;;4971365;28;20208;-68
2022/04/14 14:40:57;;;;;;;0.08;0.08;;;;;;;;;;4972527;28;20235;-67
2022/04/14 14:43:25;;;;;;;1.65;0.63;;;;;;;;;;4972827;28;20202;-68
2022/04/14 14:45:52;;;;;;;0.00;0.00;;;;;;;;;;4973167;28;20320;-67
2022/04/14 14:48:20;;;;;;;0.00;0.00;;;;;;;;;;4971111;28;20206;-68
2022/04/14 14:50:47;;;;;;;0.00;0.00;;;;;;;;;;4972594;28;20638;-68
2022/04/14 14:53:16;;;;;;;2.78;0.22;;;;;;;;;;4973227;28;20213;-68